sensor_id;sensor_type;location;lat;lon;timestamp;P1;durP1;ratioP1;P2;durP2;ratioP2
23588;SDS011;11972;48.078;11.876;2023-08-01T00:02:21;5.60;;;2.25;;
23588;SDS011;11972;48.078;11.876;2023-08-01T00:06:21;3.17;;;2.07;;
23588;SDS011;11972;48.078;11.876;2023-08-01T00:10:24;2.47;;;2.00;;
23588;SDS011;11972;48.078;11.876;2023-08-01T00:14:24;2.87;;;1.90;;
23588;SDS011;11972;48.078;11.876;2023-08-01T00:18:25;2.95;;;2.00;;
23588;SDS011;11972;48.078;11.876;2023-08-01T00:22:25;6.77;;;2.10;;
23588;SDS011;11972;48.078;11.876;2023-08-01T00:26:25;2.63;;;1.60;;
23588;SDS011;11972;48.078;11.876;2023-08-01T00:30:26;3.40;;;2.30;;
23588;SDS011;11972;48.078;11.876;2023-08-01T00:34:26;2.70;;;2.00;;
23588;SDS011;11972;48.078;11.876;2023-08-01T00:38:26;6.97;;;2.37;;
23588;SDS011;11972;48.078;11.876;2023-08-01T00:42:27;2.90;;;2.28;;
23588;SDS011;11972;48.078;11.876;2023-08-01T00:46:27;2.30;;;1.98;;
23588;SDS011;11972;48.078;11.876;2023-08-01T00:50:28;2.63;;;1.65;;
23588;SDS011;11972;48.078;11.876;2023-08-01T00:54:28;2.42;;;1.77;;
23588;SDS011;11972;48.078;11.876;2023-08-01T00:58:35;3.53;;;2.10;;
23588;SDS011;11972;48.078;11.876;2023-08-01T01:02:35;5.07;;;1.97;;
23588;SDS011;11972;48.078;11.876;2023-08-01T01:06:48;3.85;;;2.08;;
23588;SDS011;11972;48.078;11.876;2023-08-01T01:10:52;5.05;;;2.10;;
23588;SDS011;11972;48.078;11.876;2023-08-01T01:14:53;1.83;;;1.63;;
23588;SDS011;11972;48.078;11.876;2023-08-01T01:18:54;2.33;;;1.75;;
23588;SDS011;11972;48.078;11.876;2023-08-01T01:22:54;2.40;;;2.20;;
23588;SDS011;11972;48.078;11.876;2023-08-01T01:26:56;2.03;;;1.90;;
23588;SDS011;11972;48.078;11.876;2023-08-01T01:31:00;4.00;;;2.22;;
23588;SDS011;11972;48.078;11.876;2023-08-01T01:35:03;2.75;;;2.10;;
23588;SDS011;11972;48.078;11.876;2023-08-01T01:39:04;4.57;;;2.65;;
23588;SDS011;11972;48.078;11.876;2023-08-01T01:43:04;2.67;;;2.20;;
23588;SDS011;11972;48.078;11.876;2023-08-01T01:47:05;2.65;;;2.30;;
23588;SDS011;11972;48.078;11.876;2023-08-01T01:51:05;2.40;;;2.03;;
23588;SDS011;11972;48.078;11.876;2023-08-01T01:55:06;2.90;;;1.60;;
23588;SDS011;11972;48.078;11.876;2023-08-01T01:59:06;2.97;;;1.70;;
23588;SDS011;11972;48.078;11.876;2023-08-01T02:03:07;2.77;;;2.00;;
23588;SDS011;11972;48.078;11.876;2023-08-01T02:07:10;2.85;;;2.00;;
23588;SDS011;11972;48.078;11.876;2023-08-01T02:11:10;2.00;;;1.80;;
23588;SDS011;11972;48.078;11.876;2023-08-01T02:15:10;2.03;;;1.83;;
23588;SDS011;11972;48.078;11.876;2023-08-01T02:19:12;2.22;;;2.03;;
23588;SDS011;11972;48.078;11.876;2023-08-01T02:23:12;2.53;;;1.80;;
23588;SDS011;11972;48.078;11.876;2023-08-01T02:27:12;2.85;;;1.67;;
23588;SDS011;11972;48.078;11.876;2023-08-01T02:31:13;2.75;;;2.10;;
23588;SDS011;11972;48.078;11.876;2023-08-01T02:35:14;2.20;;;2.00;;
23588;SDS011;11972;48.078;11.876;2023-08-01T02:39:14;2.45;;;1.80;;
23588;SDS011;11972;48.078;11.876;2023-08-01T02:43:14;2.40;;;1.80;;
23588;SDS011;11972;48.078;11.876;2023-08-01T02:47:15;3.63;;;1.65;;
23588;SDS011;11972;48.078;11.876;2023-08-01T02:51:15;2.03;;;1.83;;
23588;SDS011;11972;48.078;11.876;2023-08-01T02:55:16;6.07;;;2.20;;
23588;SDS011;11972;48.078;11.876;2023-08-01T02:59:16;2.63;;;2.15;;
23588;SDS011;11972;48.078;11.876;2023-08-01T03:03:18;6.10;;;2.00;;
23588;SDS011;11972;48.078;11.876;2023-08-01T03:07:18;2.60;;;2.17;;
23588;SDS011;11972;48.078;11.876;2023-08-01T03:11:18;2.70;;;2.50;;
23588;SDS011;11972;48.078;11.876;2023-08-01T03:15:19;2.40;;;2.20;;
23588;SDS011;11972;48.078;11.876;2023-08-01T03:19:19;3.87;;;2.67;;
23588;SDS011;11972;48.078;11.876;2023-08-01T03:23:19;3.37;;;2.67;;
23588;SDS011;11972;48.078;11.876;2023-08-01T03:27:20;3.00;;;2.63;;
23588;SDS011;11972;48.078;11.876;2023-08-01T03:31:20;4.93;;;2.97;;
23588;SDS011;11972;48.078;11.876;2023-08-01T03:35:22;3.22;;;2.90;;
23588;SDS011;11972;48.078;11.876;2023-08-01T03:39:23;3.13;;;2.78;;
23588;SDS011;11972;48.078;11.876;2023-08-01T03:43:24;9.30;;;5.40;;
23588;SDS011;11972;48.078;11.876;2023-08-01T03:47:24;8.85;;;5.43;;
23588;SDS011;11972;48.078;11.876;2023-08-01T03:51:24;8.53;;;5.10;;
23588;SDS011;11972;48.078;11.876;2023-08-01T03:55:25;5.43;;;4.03;;
23588;SDS011;11972;48.078;11.876;2023-08-01T03:59:25;5.93;;;4.13;;
23588;SDS011;11972;48.078;11.876;2023-08-01T04:03:26;4.80;;;3.45;;
23588;SDS011;11972;48.078;11.876;2023-08-01T04:07:26;3.35;;;2.60;;
23588;SDS011;11972;48.078;11.876;2023-08-01T04:11:27;3.00;;;2.80;;
23588;SDS011;11972;48.078;11.876;2023-08-01T04:15:28;4.32;;;2.80;;
23588;SDS011;11972;48.078;11.876;2023-08-01T04:19:28;3.30;;;2.63;;
23588;SDS011;11972;48.078;11.876;2023-08-01T04:23:28;3.13;;;2.93;;
23588;SDS011;11972;48.078;11.876;2023-08-01T04:27:28;5.20;;;3.20;;
23588;SDS011;11972;48.078;11.876;2023-08-01T04:31:29;3.07;;;2.80;;
23588;SDS011;11972;48.078;11.876;2023-08-01T04:35:29;4.17;;;3.40;;
23588;SDS011;11972;48.078;11.876;2023-08-01T04:39:29;4.27;;;3.10;;
23588;SDS011;11972;48.078;11.876;2023-08-01T04:43:30;2.60;;;2.40;;
23588;SDS011;11972;48.078;11.876;2023-08-01T04:47:30;3.30;;;2.93;;
23588;SDS011;11972;48.078;11.876;2023-08-01T04:51:30;4.03;;;2.93;;
23588;SDS011;11972;48.078;11.876;2023-08-01T04:55:31;3.13;;;2.83;;
23588;SDS011;11972;48.078;11.876;2023-08-01T04:59:31;4.78;;;2.83;;
23588;SDS011;11972;48.078;11.876;2023-08-01T05:03:31;3.00;;;2.70;;
23588;SDS011;11972;48.078;11.876;2023-08-01T05:07:32;3.85;;;3.15;;
23588;SDS011;11972;48.078;11.876;2023-08-01T05:11:32;3.00;;;2.80;;
23588;SDS011;11972;48.078;11.876;2023-08-01T05:15:33;2.90;;;2.60;;
23588;SDS011;11972;48.078;11.876;2023-08-01T05:19:33;3.33;;;3.03;;
23588;SDS011;11972;48.078;11.876;2023-08-01T05:23:33;3.25;;;2.95;;
23588;SDS011;11972;48.078;11.876;2023-08-01T05:27:34;3.50;;;3.20;;
23588;SDS011;11972;48.078;11.876;2023-08-01T05:31:34;3.70;;;2.95;;
23588;SDS011;11972;48.078;11.876;2023-08-01T05:35:34;4.83;;;4.43;;
23588;SDS011;11972;48.078;11.876;2023-08-01T05:39:35;8.37;;;7.53;;
23588;SDS011;11972;48.078;11.876;2023-08-01T05:43:35;5.83;;;3.70;;
23588;SDS011;11972;48.078;11.876;2023-08-01T05:47:35;11.90;;;9.30;;
23588;SDS011;11972;48.078;11.876;2023-08-01T05:51:36;3.75;;;2.85;;
23588;SDS011;11972;48.078;11.876;2023-08-01T05:55:36;3.37;;;3.17;;
23588;SDS011;11972;48.078;11.876;2023-08-01T05:59:37;3.20;;;2.80;;
23588;SDS011;11972;48.078;11.876;2023-08-01T06:03:37;3.75;;;3.45;;
23588;SDS011;11972;48.078;11.876;2023-08-01T06:07:38;3.40;;;3.10;;
23588;SDS011;11972;48.078;11.876;2023-08-01T06:11:38;4.40;;;3.87;;
23588;SDS011;11972;48.078;11.876;2023-08-01T06:15:38;4.80;;;3.55;;
23588;SDS011;11972;48.078;11.876;2023-08-01T06:19:39;4.07;;;3.13;;
23588;SDS011;11972;48.078;11.876;2023-08-01T06:23:39;5.37;;;4.47;;
23588;SDS011;11972;48.078;11.876;2023-08-01T06:27:39;4.70;;;3.00;;
23588;SDS011;11972;48.078;11.876;2023-08-01T06:31:40;2.97;;;2.77;;
23588;SDS011;11972;48.078;11.876;2023-08-01T06:35:40;4.20;;;3.50;;
23588;SDS011;11972;48.078;11.876;2023-08-01T06:39:40;3.40;;;3.10;;
23588;SDS011;11972;48.078;11.876;2023-08-01T06:43:41;3.93;;;3.63;;
23588;SDS011;11972;48.078;11.876;2023-08-01T06:47:41;3.60;;;3.03;;
23588;SDS011;11972;48.078;11.876;2023-08-01T06:51:41;3.87;;;3.20;;
23588;SDS011;11972;48.078;11.876;2023-08-01T06:55:42;4.80;;;3.63;;
23588;SDS011;11972;48.078;11.876;2023-08-01T06:59:43;4.40;;;3.33;;
23588;SDS011;11972;48.078;11.876;2023-08-01T07:03:43;3.43;;;3.13;;
23588;SDS011;11972;48.078;11.876;2023-08-01T07:07:43;4.43;;;2.93;;
23588;SDS011;11972;48.078;11.876;2023-08-01T07:11:44;4.17;;;3.77;;
23588;SDS011;11972;48.078;11.876;2023-08-01T07:15:44;3.97;;;3.10;;
23588;SDS011;11972;48.078;11.876;2023-08-01T07:19:44;4.30;;;3.30;;
23588;SDS011;11972;48.078;11.876;2023-08-01T07:23:45;3.23;;;2.80;;
23588;SDS011;11972;48.078;11.876;2023-08-01T07:28:04;4.07;;;3.10;;
23588;SDS011;11972;48.078;11.876;2023-08-01T07:32:22;9.30;;;5.47;;
23588;SDS011;11972;48.078;11.876;2023-08-01T07:36:23;3.00;;;2.70;;
23588;SDS011;11972;48.078;11.876;2023-08-01T07:40:23;4.68;;;3.33;;
23588;SDS011;11972;48.078;11.876;2023-08-01T07:44:24;3.00;;;2.63;;
23588;SDS011;11972;48.078;11.876;2023-08-01T07:48:24;3.10;;;2.47;;
23588;SDS011;11972;48.078;11.876;2023-08-01T07:52:25;2.38;;;2.17;;
23588;SDS011;11972;48.078;11.876;2023-08-01T07:56:25;2.58;;;2.38;;
23588;SDS011;11972;48.078;11.876;2023-08-01T08:00:26;2.55;;;2.35;;
23588;SDS011;11972;48.078;11.876;2023-08-01T08:04:26;3.10;;;2.70;;
23588;SDS011;11972;48.078;11.876;2023-08-01T08:08:26;3.95;;;2.80;;
23588;SDS011;11972;48.078;11.876;2023-08-01T08:12:27;2.60;;;2.40;;
23588;SDS011;11972;48.078;11.876;2023-08-01T08:16:27;2.83;;;2.63;;
23588;SDS011;11972;48.078;11.876;2023-08-01T08:20:27;3.23;;;2.40;;
23588;SDS011;11972;48.078;11.876;2023-08-01T08:24:28;3.27;;;2.60;;
23588;SDS011;11972;48.078;11.876;2023-08-01T08:28:29;17.03;;;9.47;;
23588;SDS011;11972;48.078;11.876;2023-08-01T08:32:30;3.58;;;2.60;;
23588;SDS011;11972;48.078;11.876;2023-08-01T08:36:31;23.93;;;9.23;;
23588;SDS011;11972;48.078;11.876;2023-08-01T08:40:32;4.63;;;3.97;;
23588;SDS011;11972;48.078;11.876;2023-08-01T08:44:34;12.82;;;7.38;;
23588;SDS011;11972;48.078;11.876;2023-08-01T08:52:44;2.65;;;2.45;;
23588;SDS011;11972;48.078;11.876;2023-08-01T08:56:45;3.40;;;2.20;;
23588;SDS011;11972;48.078;11.876;2023-08-01T09:00:46;3.45;;;2.50;;
23588;SDS011;11972;48.078;11.876;2023-08-01T09:04:47;2.60;;;2.40;;
23588;SDS011;11972;48.078;11.876;2023-08-01T09:08:51;3.50;;;2.90;;
23588;SDS011;11972;48.078;11.876;2023-08-01T09:17:04;4.73;;;3.07;;
23588;SDS011;11972;48.078;11.876;2023-08-01T09:21:06;3.40;;;3.10;;
23588;SDS011;11972;48.078;11.876;2023-08-01T09:25:07;3.13;;;2.63;;
23588;SDS011;11972;48.078;11.876;2023-08-01T09:29:08;3.63;;;3.05;;
23588;SDS011;11972;48.078;11.876;2023-08-01T09:33:09;6.80;;;4.35;;
23588;SDS011;11972;48.078;11.876;2023-08-01T09:37:09;3.73;;;3.40;;
23588;SDS011;11972;48.078;11.876;2023-08-01T09:41:16;7.40;;;4.95;;
23588;SDS011;11972;48.078;11.876;2023-08-01T09:45:20;4.78;;;2.85;;
23588;SDS011;11972;48.078;11.876;2023-08-01T09:49:21;3.08;;;2.70;;
23588;SDS011;11972;48.078;11.876;2023-08-01T09:53:21;2.97;;;2.77;;
23588;SDS011;11972;48.078;11.876;2023-08-01T09:57:22;3.20;;;2.90;;
23588;SDS011;11972;48.078;11.876;2023-08-01T10:01:24;4.38;;;2.80;;
23588;SDS011;11972;48.078;11.876;2023-08-01T10:05:29;3.40;;;2.80;;
23588;SDS011;11972;48.078;11.876;2023-08-01T10:09:31;3.88;;;3.25;;
23588;SDS011;11972;48.078;11.876;2023-08-01T10:13:35;3.58;;;2.78;;
23588;SDS011;11972;48.078;11.876;2023-08-01T10:17:36;3.00;;;2.70;;
23588;SDS011;11972;48.078;11.876;2023-08-01T10:21:37;6.05;;;5.00;;
23588;SDS011;11972;48.078;11.876;2023-08-01T10:25:37;3.30;;;2.85;;
23588;SDS011;11972;48.078;11.876;2023-08-01T10:29:39;3.83;;;3.33;;
23588;SDS011;11972;48.078;11.876;2023-08-01T10:33:40;3.22;;;2.90;;
23588;SDS011;11972;48.078;11.876;2023-08-01T10:37:45;3.92;;;2.63;;
23588;SDS011;11972;48.078;11.876;2023-08-01T10:41:47;3.97;;;2.65;;
23588;SDS011;11972;48.078;11.876;2023-08-01T10:46:03;3.10;;;2.80;;
23588;SDS011;11972;48.078;11.876;2023-08-01T10:50:13;2.90;;;2.70;;
23588;SDS011;11972;48.078;11.876;2023-08-01T10:54:18;3.53;;;2.70;;
23588;SDS011;11972;48.078;11.876;2023-08-01T10:58:26;2.03;;;1.85;;
23588;SDS011;11972;48.078;11.876;2023-08-01T11:02:27;2.50;;;2.28;;
23588;SDS011;11972;48.078;11.876;2023-08-01T11:06:28;2.38;;;2.17;;
23588;SDS011;11972;48.078;11.876;2023-08-01T11:10:29;2.47;;;2.27;;
23588;SDS011;11972;48.078;11.876;2023-08-01T11:14:31;3.63;;;2.65;;
23588;SDS011;11972;48.078;11.876;2023-08-01T11:18:49;2.77;;;2.57;;
23588;SDS011;11972;48.078;11.876;2023-08-01T11:22:56;2.53;;;2.33;;
23588;SDS011;11972;48.078;11.876;2023-08-01T11:27:00;2.13;;;1.92;;
23588;SDS011;11972;48.078;11.876;2023-08-01T11:31:01;2.60;;;2.28;;
23588;SDS011;11972;48.078;11.876;2023-08-01T11:35:01;3.50;;;2.03;;
23588;SDS011;11972;48.078;11.876;2023-08-01T11:39:02;2.22;;;1.92;;
23588;SDS011;11972;48.078;11.876;2023-08-01T11:43:03;2.45;;;1.70;;
23588;SDS011;11972;48.078;11.876;2023-08-01T11:47:03;1.90;;;1.70;;
23588;SDS011;11972;48.078;11.876;2023-08-01T11:51:11;2.03;;;1.92;;
23588;SDS011;11972;48.078;11.876;2023-08-01T11:55:18;1.92;;;1.70;;
23588;SDS011;11972;48.078;11.876;2023-08-01T11:59:27;2.03;;;1.92;;
23588;SDS011;11972;48.078;11.876;2023-08-01T12:03:27;2.27;;;2.03;;
23588;SDS011;11972;48.078;11.876;2023-08-01T12:07:28;3.13;;;1.80;;
23588;SDS011;11972;48.078;11.876;2023-08-01T12:11:29;2.80;;;2.30;;
23588;SDS011;11972;48.078;11.876;2023-08-01T12:15:30;3.60;;;2.17;;
23588;SDS011;11972;48.078;11.876;2023-08-01T12:19:30;2.20;;;2.00;;
23588;SDS011;11972;48.078;11.876;2023-08-01T12:23:31;2.10;;;1.80;;
23588;SDS011;11972;48.078;11.876;2023-08-01T12:27:31;2.10;;;1.90;;
23588;SDS011;11972;48.078;11.876;2023-08-01T12:31:31;3.45;;;1.95;;
23588;SDS011;11972;48.078;11.876;2023-08-01T12:35:32;4.17;;;2.80;;
23588;SDS011;11972;48.078;11.876;2023-08-01T12:39:32;3.23;;;2.33;;
23588;SDS011;11972;48.078;11.876;2023-08-01T12:43:32;2.10;;;1.90;;
23588;SDS011;11972;48.078;11.876;2023-08-01T12:47:33;2.15;;;1.73;;
23588;SDS011;11972;48.078;11.876;2023-08-01T12:51:33;1.53;;;1.43;;
23588;SDS011;11972;48.078;11.876;2023-08-01T12:55:33;1.67;;;1.57;;
23588;SDS011;11972;48.078;11.876;2023-08-01T12:59:34;2.30;;;1.60;;
23588;SDS011;11972;48.078;11.876;2023-08-01T13:03:34;2.03;;;1.67;;
23588;SDS011;11972;48.078;11.876;2023-08-01T13:07:34;1.47;;;1.30;;
23588;SDS011;11972;48.078;11.876;2023-08-01T13:11:35;1.50;;;1.30;;
23588;SDS011;11972;48.078;11.876;2023-08-01T13:15:35;2.60;;;1.10;;
23588;SDS011;11972;48.078;11.876;2023-08-01T13:19:35;1.20;;;1.10;;
23588;SDS011;11972;48.078;11.876;2023-08-01T13:23:35;1.40;;;1.30;;
23588;SDS011;11972;48.078;11.876;2023-08-01T13:27:36;1.50;;;1.17;;
23588;SDS011;11972;48.078;11.876;2023-08-01T13:31:37;1.23;;;1.00;;
23588;SDS011;11972;48.078;11.876;2023-08-01T13:35:37;1.60;;;1.20;;
23588;SDS011;11972;48.078;11.876;2023-08-01T13:39:37;1.70;;;0.93;;
23588;SDS011;11972;48.078;11.876;2023-08-01T13:43:38;1.97;;;0.90;;
23588;SDS011;11972;48.078;11.876;2023-08-01T13:47:38;1.03;;;0.93;;
23588;SDS011;11972;48.078;11.876;2023-08-01T13:51:38;2.13;;;1.00;;
23588;SDS011;11972;48.078;11.876;2023-08-01T13:55:39;2.10;;;1.13;;
23588;SDS011;11972;48.078;11.876;2023-08-01T13:59:40;1.38;;;1.27;;
23588;SDS011;11972;48.078;11.876;2023-08-01T14:03:40;1.43;;;1.30;;
23588;SDS011;11972;48.078;11.876;2023-08-01T14:07:40;1.40;;;1.30;;
23588;SDS011;11972;48.078;11.876;2023-08-01T14:11:41;2.03;;;1.40;;
23588;SDS011;11972;48.078;11.876;2023-08-01T14:15:41;1.40;;;1.07;;
23588;SDS011;11972;48.078;11.876;2023-08-01T14:19:41;1.70;;;1.27;;
23588;SDS011;11972;48.078;11.876;2023-08-01T14:23:42;1.45;;;1.35;;
23588;SDS011;11972;48.078;11.876;2023-08-01T14:27:43;1.60;;;1.30;;
23588;SDS011;11972;48.078;11.876;2023-08-01T14:31:43;2.07;;;1.27;;
23588;SDS011;11972;48.078;11.876;2023-08-01T14:35:43;1.90;;;1.40;;
23588;SDS011;11972;48.078;11.876;2023-08-01T14:39:44;2.90;;;1.38;;
23588;SDS011;11972;48.078;11.876;2023-08-01T14:43:44;1.45;;;1.20;;
23588;SDS011;11972;48.078;11.876;2023-08-01T14:47:45;1.35;;;1.10;;
23588;SDS011;11972;48.078;11.876;2023-08-01T14:51:46;1.88;;;1.30;;
23588;SDS011;11972;48.078;11.876;2023-08-01T14:55:46;1.30;;;1.20;;
23588;SDS011;11972;48.078;11.876;2023-08-01T14:59:46;1.90;;;1.43;;
23588;SDS011;11972;48.078;11.876;2023-08-01T15:03:47;2.08;;;0.98;;
23588;SDS011;11972;48.078;11.876;2023-08-01T15:07:47;1.95;;;1.75;;
23588;SDS011;11972;48.078;11.876;2023-08-01T15:11:47;1.20;;;1.10;;
23588;SDS011;11972;48.078;11.876;2023-08-01T15:15:48;0.80;;;0.80;;
23588;SDS011;11972;48.078;11.876;2023-08-01T15:19:48;1.90;;;0.80;;
23588;SDS011;11972;48.078;11.876;2023-08-01T15:23:49;0.60;;;0.60;;
23588;SDS011;11972;48.078;11.876;2023-08-01T15:27:49;0.70;;;0.57;;
23588;SDS011;11972;48.078;11.876;2023-08-01T15:31:49;1.43;;;0.60;;
23588;SDS011;11972;48.078;11.876;2023-08-01T15:35:50;0.82;;;0.60;;
23588;SDS011;11972;48.078;11.876;2023-08-01T15:39:50;1.07;;;0.73;;
23588;SDS011;11972;48.078;11.876;2023-08-01T15:43:50;1.98;;;0.70;;
23588;SDS011;11972;48.078;11.876;2023-08-01T15:47:51;0.70;;;0.70;;
23588;SDS011;11972;48.078;11.876;2023-08-01T15:51:51;0.60;;;0.60;;
23588;SDS011;11972;48.078;11.876;2023-08-01T15:55:55;0.60;;;0.60;;
23588;SDS011;11972;48.078;11.876;2023-08-01T15:59:57;0.60;;;0.60;;
23588;SDS011;11972;48.078;11.876;2023-08-01T16:03:57;1.00;;;0.87;;
23588;SDS011;11972;48.078;11.876;2023-08-01T16:07:58;0.70;;;0.50;;
23588;SDS011;11972;48.078;11.876;2023-08-01T16:11:59;0.95;;;0.60;;
23588;SDS011;11972;48.078;11.876;2023-08-01T16:15:59;0.60;;;0.60;;
23588;SDS011;11972;48.078;11.876;2023-08-01T16:19:59;0.40;;;0.40;;
23588;SDS011;11972;48.078;11.876;2023-08-01T16:24:00;1.92;;;0.40;;
23588;SDS011;11972;48.078;11.876;2023-08-01T16:28:01;0.60;;;0.50;;
23588;SDS011;11972;48.078;11.876;2023-08-01T16:32:02;0.90;;;0.50;;
23588;SDS011;11972;48.078;11.876;2023-08-01T16:36:02;0.52;;;0.40;;
23588;SDS011;11972;48.078;11.876;2023-08-01T16:40:03;0.73;;;0.50;;
23588;SDS011;11972;48.078;11.876;2023-08-01T16:44:04;2.28;;;0.57;;
23588;SDS011;11972;48.078;11.876;2023-08-01T16:48:04;0.85;;;0.40;;
23588;SDS011;11972;48.078;11.876;2023-08-01T16:52:05;1.55;;;0.45;;
23588;SDS011;11972;48.078;11.876;2023-08-01T16:56:07;1.63;;;0.80;;
23588;SDS011;11972;48.078;11.876;2023-08-01T17:00:08;0.50;;;0.30;;
23588;SDS011;11972;48.078;11.876;2023-08-01T17:04:10;0.73;;;0.40;;
23588;SDS011;11972;48.078;11.876;2023-08-01T17:08:10;0.30;;;0.30;;
23588;SDS011;11972;48.078;11.876;2023-08-01T17:12:11;0.40;;;0.40;;
23588;SDS011;11972;48.078;11.876;2023-08-01T17:16:11;0.40;;;0.40;;
23588;SDS011;11972;48.078;11.876;2023-08-01T17:20:11;0.40;;;0.30;;
23588;SDS011;11972;48.078;11.876;2023-08-01T17:24:12;0.37;;;0.37;;
23588;SDS011;11972;48.078;11.876;2023-08-01T17:28:12;0.30;;;0.30;;
23588;SDS011;11972;48.078;11.876;2023-08-01T17:32:12;0.50;;;0.37;;
23588;SDS011;11972;48.078;11.876;2023-08-01T17:36:13;1.23;;;0.40;;
23588;SDS011;11972;48.078;11.876;2023-08-01T17:40:14;0.60;;;0.40;;
23588;SDS011;11972;48.078;11.876;2023-08-01T17:44:14;1.40;;;0.88;;
23588;SDS011;11972;48.078;11.876;2023-08-01T17:48:15;0.50;;;0.43;;
23588;SDS011;11972;48.078;11.876;2023-08-01T17:52:15;0.40;;;0.40;;
23588;SDS011;11972;48.078;11.876;2023-08-01T17:56:15;2.17;;;1.73;;
23588;SDS011;11972;48.078;11.876;2023-08-01T18:00:16;0.50;;;0.50;;
23588;SDS011;11972;48.078;11.876;2023-08-01T18:04:18;1.15;;;0.40;;
23588;SDS011;11972;48.078;11.876;2023-08-01T18:08:18;0.95;;;0.30;;
23588;SDS011;11972;48.078;11.876;2023-08-01T18:12:18;0.57;;;0.40;;
23588;SDS011;11972;48.078;11.876;2023-08-01T18:16:20;0.40;;;0.40;;
23588;SDS011;11972;48.078;11.876;2023-08-01T18:20:22;0.43;;;0.30;;
23588;SDS011;11972;48.078;11.876;2023-08-01T18:24:23;0.73;;;0.40;;
23588;SDS011;11972;48.078;11.876;2023-08-01T18:28:23;0.70;;;0.50;;
23588;SDS011;11972;48.078;11.876;2023-08-01T18:32:23;1.05;;;0.77;;
23588;SDS011;11972;48.078;11.876;2023-08-01T18:36:24;1.30;;;0.80;;
23588;SDS011;11972;48.078;11.876;2023-08-01T18:40:25;1.00;;;0.77;;
23588;SDS011;11972;48.078;11.876;2023-08-01T18:44:28;1.02;;;0.70;;
23588;SDS011;11972;48.078;11.876;2023-08-01T18:48:28;0.70;;;0.70;;
23588;SDS011;11972;48.078;11.876;2023-08-01T18:52:29;0.50;;;0.50;;
23588;SDS011;11972;48.078;11.876;2023-08-01T18:56:32;1.00;;;0.55;;
23588;SDS011;11972;48.078;11.876;2023-08-01T19:00:32;2.10;;;0.60;;
23588;SDS011;11972;48.078;11.876;2023-08-01T19:04:33;0.40;;;0.40;;
23588;SDS011;11972;48.078;11.876;2023-08-01T19:08:33;0.45;;;0.45;;
23588;SDS011;11972;48.078;11.876;2023-08-01T19:12:34;1.75;;;0.50;;
23588;SDS011;11972;48.078;11.876;2023-08-01T19:16:34;0.65;;;0.50;;
23588;SDS011;11972;48.078;11.876;2023-08-01T19:20:36;0.90;;;0.50;;
23588;SDS011;11972;48.078;11.876;2023-08-01T19:24:37;2.05;;;0.80;;
23588;SDS011;11972;48.078;11.876;2023-08-01T19:28:38;0.38;;;0.32;;
23588;SDS011;11972;48.078;11.876;2023-08-01T19:32:39;2.67;;;0.70;;
23588;SDS011;11972;48.078;11.876;2023-08-01T19:36:40;0.47;;;0.43;;
23588;SDS011;11972;48.078;11.876;2023-08-01T19:40:41;1.80;;;0.47;;
23588;SDS011;11972;48.078;11.876;2023-08-01T19:44:43;1.67;;;0.65;;
23588;SDS011;11972;48.078;11.876;2023-08-01T19:48:44;1.80;;;0.60;;
23588;SDS011;11972;48.078;11.876;2023-08-01T19:52:45;0.57;;;0.50;;
23588;SDS011;11972;48.078;11.876;2023-08-01T19:56:47;2.28;;;1.15;;
23588;SDS011;11972;48.078;11.876;2023-08-01T20:00:49;0.70;;;0.60;;
23588;SDS011;11972;48.078;11.876;2023-08-01T20:04:49;0.55;;;0.55;;
23588;SDS011;11972;48.078;11.876;2023-08-01T20:08:50;1.00;;;0.90;;
23588;SDS011;11972;48.078;11.876;2023-08-01T20:12:50;2.38;;;0.90;;
23588;SDS011;11972;48.078;11.876;2023-08-01T20:16:51;1.15;;;0.80;;
23588;SDS011;11972;48.078;11.876;2023-08-01T20:20:51;0.70;;;0.60;;
23588;SDS011;11972;48.078;11.876;2023-08-01T20:24:52;0.60;;;0.60;;
23588;SDS011;11972;48.078;11.876;2023-08-01T20:28:53;1.90;;;1.17;;
23588;SDS011;11972;48.078;11.876;2023-08-01T20:32:53;0.90;;;0.80;;
23588;SDS011;11972;48.078;11.876;2023-08-01T20:36:53;1.07;;;0.70;;
23588;SDS011;11972;48.078;11.876;2023-08-01T20:40:54;1.07;;;0.70;;
23588;SDS011;11972;48.078;11.876;2023-08-01T20:44:56;1.35;;;0.60;;
23588;SDS011;11972;48.078;11.876;2023-08-01T20:48:56;0.60;;;0.60;;
23588;SDS011;11972;48.078;11.876;2023-08-01T20:52:57;0.52;;;0.52;;
23588;SDS011;11972;48.078;11.876;2023-08-01T20:56:57;1.02;;;0.70;;
23588;SDS011;11972;48.078;11.876;2023-08-01T21:00:58;1.58;;;1.10;;
23588;SDS011;11972;48.078;11.876;2023-08-01T21:04:59;0.98;;;0.85;;
23588;SDS011;11972;48.078;11.876;2023-08-01T21:08:59;0.90;;;0.90;;
23588;SDS011;11972;48.078;11.876;2023-08-01T21:13:00;0.93;;;0.80;;
23588;SDS011;11972;48.078;11.876;2023-08-01T21:17:01;0.70;;;0.70;;
23588;SDS011;11972;48.078;11.876;2023-08-01T21:21:01;0.80;;;0.80;;
23588;SDS011;11972;48.078;11.876;2023-08-01T21:25:02;1.40;;;0.82;;
23588;SDS011;11972;48.078;11.876;2023-08-01T21:29:02;1.25;;;0.88;;
23588;SDS011;11972;48.078;11.876;2023-08-01T21:33:03;0.90;;;0.90;;
23588;SDS011;11972;48.078;11.876;2023-08-01T21:37:03;1.13;;;0.80;;
23588;SDS011;11972;48.078;11.876;2023-08-01T21:41:04;1.50;;;0.95;;
23588;SDS011;11972;48.078;11.876;2023-08-01T21:45:04;1.55;;;1.00;;
23588;SDS011;11972;48.078;11.876;2023-08-01T21:49:05;1.00;;;0.90;;
23588;SDS011;11972;48.078;11.876;2023-08-01T21:53:06;4.13;;;3.03;;
23588;SDS011;11972;48.078;11.876;2023-08-01T21:57:06;1.47;;;0.93;;
23588;SDS011;11972;48.078;11.876;2023-08-01T22:01:06;1.33;;;0.80;;
23588;SDS011;11972;48.078;11.876;2023-08-01T22:05:07;3.63;;;1.10;;
23588;SDS011;11972;48.078;11.876;2023-08-01T22:09:08;0.80;;;0.73;;
23588;SDS011;11972;48.078;11.876;2023-08-01T22:13:08;1.13;;;0.70;;
23588;SDS011;11972;48.078;11.876;2023-08-01T22:17:09;1.40;;;1.20;;
23588;SDS011;11972;48.078;11.876;2023-08-01T22:21:09;0.90;;;0.85;;
23588;SDS011;11972;48.078;11.876;2023-08-01T22:25:09;0.60;;;0.60;;
23588;SDS011;11972;48.078;11.876;2023-08-01T22:29:09;1.42;;;0.95;;
23588;SDS011;11972;48.078;11.876;2023-08-01T22:33:10;2.33;;;1.90;;
23588;SDS011;11972;48.078;11.876;2023-08-01T22:37:10;1.03;;;0.93;;
23588;SDS011;11972;48.078;11.876;2023-08-01T22:41:14;1.00;;;0.98;;
23588;SDS011;11972;48.078;11.876;2023-08-01T22:45:16;1.00;;;0.90;;
23588;SDS011;11972;48.078;11.876;2023-08-01T22:49:16;0.85;;;0.82;;
23588;SDS011;11972;48.078;11.876;2023-08-01T22:53:16;0.87;;;0.87;;
23588;SDS011;11972;48.078;11.876;2023-08-01T22:57:17;1.85;;;1.00;;
23588;SDS011;11972;48.078;11.876;2023-08-01T23:01:17;0.80;;;0.80;;
23588;SDS011;11972;48.078;11.876;2023-08-01T23:05:18;1.58;;;0.85;;
23588;SDS011;11972;48.078;11.876;2023-08-01T23:09:20;0.98;;;0.88;;
23588;SDS011;11972;48.078;11.876;2023-08-01T23:13:20;1.83;;;1.00;;
23588;SDS011;11972;48.078;11.876;2023-08-01T23:17:21;2.03;;;1.10;;
23588;SDS011;11972;48.078;11.876;2023-08-01T23:21:21;1.35;;;1.13;;
23588;SDS011;11972;48.078;11.876;2023-08-01T23:25:22;1.05;;;0.80;;
23588;SDS011;11972;48.078;11.876;2023-08-01T23:29:22;1.23;;;1.10;;
23588;SDS011;11972;48.078;11.876;2023-08-01T23:33:23;1.57;;;1.23;;
23588;SDS011;11972;48.078;11.876;2023-08-01T23:37:24;1.10;;;0.98;;
23588;SDS011;11972;48.078;11.876;2023-08-01T23:41:24;2.07;;;1.00;;
23588;SDS011;11972;48.078;11.876;2023-08-01T23:45:24;1.05;;;0.90;;
23588;SDS011;11972;48.078;11.876;2023-08-01T23:49:25;1.77;;;1.07;;
23588;SDS011;11972;48.078;11.876;2023-08-01T23:53:25;2.80;;;1.10;;
23588;SDS011;11972;48.078;11.876;2023-08-01T23:57:25;0.98;;;0.90;;
